Inriville, Argentina
Current Conditions -  °F | °C
As of 11:18 AM on Wednesday 28 Jan 2015 (Local Time) from SAAR Reporting Station
Light Rain Light Rain  
Wind Chill: 72°   Ceiling: 2000
Heat Index: 72°   Visibility: 6mi
Dew Point: 66°   Wind: 21mph
Humidity: 83%   Direction: 140°SE
Pressure: 29.77"   Gusts: NA
Location:  32.94°S, 62.29°W
Report Text: SAAR 281418Z 14018KT 9000 -RA SCT016 BKN020 OVC045 22/19 Q1008
Loading
Personal Weather Stations






























Interactive Weather Map New forecast layout! Learn more

10-Day Weather Forecast

Advertisements
Track Severe Weather on mobile